sensor_id;sensor_type;location;lat;lon;timestamp;temperature;humidity
30572;DHT22;17348;50.948;10.696;2023-05-10T00:00:05;13.50;99.90
30572;DHT22;17348;50.948;10.696;2023-05-10T00:03:07;13.50;99.90
30572;DHT22;17348;50.948;10.696;2023-05-10T00:06:10;13.50;99.90
30572;DHT22;17348;50.948;10.696;2023-05-10T00:09:13;13.40;99.90
30572;DHT22;17348;50.948;10.696;2023-05-10T00:12:17;13.40;99.90
30572;DHT22;17348;50.948;10.696;2023-05-10T00:15:19;13.40;99.90
30572;DHT22;17348;50.948;10.696;2023-05-10T00:18:21;13.40;99.90
30572;DHT22;17348;50.948;10.696;2023-05-10T00:21:24;13.40;99.90
30572;DHT22;17348;50.948;10.696;2023-05-10T00:24:26;13.40;99.90
30572;DHT22;17348;50.948;10.696;2023-05-10T00:27:30;13.40;99.90
30572;DHT22;17348;50.948;10.696;2023-05-10T00:30:32;13.40;99.90
30572;DHT22;17348;50.948;10.696;2023-05-10T00:33:34;13.40;99.90
30572;DHT22;17348;50.948;10.696;2023-05-10T00:36:37;13.40;99.90
30572;DHT22;17348;50.948;10.696;2023-05-10T00:39:39;13.30;99.90
30572;DHT22;17348;50.948;10.696;2023-05-10T00:42:43;13.30;99.90
30572;DHT22;17348;50.948;10.696;2023-05-10T00:45:45;13.30;99.90
30572;DHT22;17348;50.948;10.696;2023-05-10T00:48:48;13.30;99.90
30572;DHT22;17348;50.948;10.696;2023-05-10T00:51:51;13.30;99.90
30572;DHT22;17348;50.948;10.696;2023-05-10T00:54:53;13.30;99.90
30572;DHT22;17348;50.948;10.696;2023-05-10T00:57:57;13.30;99.90
30572;DHT22;17348;50.948;10.696;2023-05-10T01:01:00;13.30;99.90
30572;DHT22;17348;50.948;10.696;2023-05-10T01:04:03;13.30;99.90
30572;DHT22;17348;50.948;10.696;2023-05-10T01:07:06;13.30;99.90
30572;DHT22;17348;50.948;10.696;2023-05-10T01:10:09;13.30;99.90
30572;DHT22;17348;50.948;10.696;2023-05-10T01:13:15;13.30;99.90
30572;DHT22;17348;50.948;10.696;2023-05-10T01:16:20;13.20;99.90
30572;DHT22;17348;50.948;10.696;2023-05-10T01:19:25;13.30;99.90
30572;DHT22;17348;50.948;10.696;2023-05-10T01:26:33;13.30;99.90
30572;DHT22;17348;50.948;10.696;2023-05-10T01:30:08;13.30;99.90
30572;DHT22;17348;50.948;10.696;2023-05-10T01:33:18;13.30;99.90
30572;DHT22;17348;50.948;10.696;2023-05-10T01:36:28;13.30;99.90
30572;DHT22;17348;50.948;10.696;2023-05-10T01:39:37;13.30;99.90
30572;DHT22;17348;50.948;10.696;2023-05-10T01:42:47;13.30;99.90
30572;DHT22;17348;50.948;10.696;2023-05-10T01:45:58;13.30;99.90
30572;DHT22;17348;50.948;10.696;2023-05-10T01:49:07;13.20;99.90
30572;DHT22;17348;50.948;10.696;2023-05-10T01:52:12;13.20;99.90
30572;DHT22;17348;50.948;10.696;2023-05-10T01:55:18;13.20;99.90
30572;DHT22;17348;50.948;10.696;2023-05-10T01:58:26;13.10;99.90
30572;DHT22;17348;50.948;10.696;2023-05-10T02:01:29;13.10;99.90
30572;DHT22;17348;50.948;10.696;2023-05-10T02:04:35;13.10;99.90
30572;DHT22;17348;50.948;10.696;2023-05-10T02:07:39;13.10;99.90
30572;DHT22;17348;50.948;10.696;2023-05-10T02:10:43;13.10;99.90
30572;DHT22;17348;50.948;10.696;2023-05-10T02:13:48;13.10;99.90
30572;DHT22;17348;50.948;10.696;2023-05-10T02:16:52;13.10;99.90
30572;DHT22;17348;50.948;10.696;2023-05-10T02:19:58;13.00;99.90
30572;DHT22;17348;50.948;10.696;2023-05-10T02:23:02;13.00;99.90
30572;DHT22;17348;50.948;10.696;2023-05-10T02:26:06;12.90;99.90
30572;DHT22;17348;50.948;10.696;2023-05-10T02:29:09;12.90;99.90
30572;DHT22;17348;50.948;10.696;2023-05-10T02:32:14;12.90;99.90
30572;DHT22;17348;50.948;10.696;2023-05-10T02:35:19;12.80;99.90
30572;DHT22;17348;50.948;10.696;2023-05-10T02:38:22;12.70;99.90
30572;DHT22;17348;50.948;10.696;2023-05-10T02:41:26;12.70;99.90
30572;DHT22;17348;50.948;10.696;2023-05-10T02:44:30;12.60;99.90
30572;DHT22;17348;50.948;10.696;2023-05-10T02:47:33;12.70;99.90
30572;DHT22;17348;50.948;10.696;2023-05-10T02:50:39;12.60;99.90
30572;DHT22;17348;50.948;10.696;2023-05-10T02:53:44;12.60;99.90
30572;DHT22;17348;50.948;10.696;2023-05-10T02:56:55;12.60;99.90
30572;DHT22;17348;50.948;10.696;2023-05-10T02:59:58;12.60;99.90
30572;DHT22;17348;50.948;10.696;2023-05-10T03:03:01;12.60;99.90
30572;DHT22;17348;50.948;10.696;2023-05-10T03:06:05;12.60;99.90
30572;DHT22;17348;50.948;10.696;2023-05-10T03:09:08;12.50;99.90
30572;DHT22;17348;50.948;10.696;2023-05-10T03:12:18;12.50;99.90
30572;DHT22;17348;50.948;10.696;2023-05-10T03:15:28;12.60;99.90
30572;DHT22;17348;50.948;10.696;2023-05-10T03:18:40;12.60;99.90
30572;DHT22;17348;50.948;10.696;2023-05-10T03:21:47;12.60;99.90
30572;DHT22;17348;50.948;10.696;2023-05-10T03:24:55;12.60;99.90
30572;DHT22;17348;50.948;10.696;2023-05-10T03:28:00;12.60;99.90
30572;DHT22;17348;50.948;10.696;2023-05-10T03:31:04;12.50;99.90
30572;DHT22;17348;50.948;10.696;2023-05-10T03:34:07;12.50;99.90
30572;DHT22;17348;50.948;10.696;2023-05-10T03:37:11;12.60;99.90
30572;DHT22;17348;50.948;10.696;2023-05-10T03:40:13;12.60;99.90
30572;DHT22;17348;50.948;10.696;2023-05-10T03:43:16;12.60;99.90
30572;DHT22;17348;50.948;10.696;2023-05-10T03:46:18;12.60;99.90
30572;DHT22;17348;50.948;10.696;2023-05-10T03:49:21;12.60;99.90
30572;DHT22;17348;50.948;10.696;2023-05-10T03:52:25;12.60;99.90
30572;DHT22;17348;50.948;10.696;2023-05-10T03:55:27;12.60;99.90
30572;DHT22;17348;50.948;10.696;2023-05-10T03:58:30;12.60;99.90
30572;DHT22;17348;50.948;10.696;2023-05-10T04:01:32;12.60;99.90
30572;DHT22;17348;50.948;10.696;2023-05-10T04:04:35;12.60;99.90
30572;DHT22;17348;50.948;10.696;2023-05-10T04:07:38;12.60;99.90
30572;DHT22;17348;50.948;10.696;2023-05-10T04:10:41;12.60;99.90
30572;DHT22;17348;50.948;10.696;2023-05-10T04:13:43;12.70;99.90
30572;DHT22;17348;50.948;10.696;2023-05-10T04:16:45;12.70;99.90
30572;DHT22;17348;50.948;10.696;2023-05-10T04:19:48;12.70;99.90
30572;DHT22;17348;50.948;10.696;2023-05-10T04:22:51;12.70;99.90
30572;DHT22;17348;50.948;10.696;2023-05-10T04:25:59;12.70;99.90
30572;DHT22;17348;50.948;10.696;2023-05-10T04:29:02;12.80;99.90
30572;DHT22;17348;50.948;10.696;2023-05-10T04:32:04;12.80;99.90
30572;DHT22;17348;50.948;10.696;2023-05-10T04:35:07;12.90;99.90
30572;DHT22;17348;50.948;10.696;2023-05-10T04:38:12;13.00;99.90
30572;DHT22;17348;50.948;10.696;2023-05-10T04:41:14;13.00;99.90
30572;DHT22;17348;50.948;10.696;2023-05-10T04:44:16;13.10;99.90
30572;DHT22;17348;50.948;10.696;2023-05-10T04:47:19;13.10;99.90
30572;DHT22;17348;50.948;10.696;2023-05-10T04:50:21;13.10;99.90
30572;DHT22;17348;50.948;10.696;2023-05-10T04:53:25;13.10;99.90
30572;DHT22;17348;50.948;10.696;2023-05-10T04:56:27;13.10;99.90
30572;DHT22;17348;50.948;10.696;2023-05-10T04:59:30;13.10;99.90
30572;DHT22;17348;50.948;10.696;2023-05-10T05:02:32;13.10;99.90
30572;DHT22;17348;50.948;10.696;2023-05-10T05:05:34;13.20;99.90
30572;DHT22;17348;50.948;10.696;2023-05-10T05:08:38;13.30;99.90
30572;DHT22;17348;50.948;10.696;2023-05-10T05:11:40;13.40;99.90
30572;DHT22;17348;50.948;10.696;2023-05-10T05:14:44;13.40;99.90
30572;DHT22;17348;50.948;10.696;2023-05-10T05:17:47;13.50;99.90
30572;DHT22;17348;50.948;10.696;2023-05-10T05:20:49;13.60;99.90
30572;DHT22;17348;50.948;10.696;2023-05-10T05:23:53;13.60;99.90
30572;DHT22;17348;50.948;10.696;2023-05-10T05:26:55;13.70;99.90
30572;DHT22;17348;50.948;10.696;2023-05-10T05:29:58;13.80;99.90
30572;DHT22;17348;50.948;10.696;2023-05-10T05:33:00;13.80;99.90
30572;DHT22;17348;50.948;10.696;2023-05-10T05:36:03;13.90;99.90
30572;DHT22;17348;50.948;10.696;2023-05-10T05:39:07;14.00;99.90
30572;DHT22;17348;50.948;10.696;2023-05-10T05:42:10;14.00;99.90
30572;DHT22;17348;50.948;10.696;2023-05-10T05:45:12;14.10;99.90
30572;DHT22;17348;50.948;10.696;2023-05-10T05:48:15;14.10;99.90
30572;DHT22;17348;50.948;10.696;2023-05-10T05:51:17;14.10;99.90
30572;DHT22;17348;50.948;10.696;2023-05-10T05:54:21;14.20;99.90
30572;DHT22;17348;50.948;10.696;2023-05-10T05:57:23;14.20;99.90
30572;DHT22;17348;50.948;10.696;2023-05-10T06:00:27;14.30;99.90
30572;DHT22;17348;50.948;10.696;2023-05-10T06:03:30;14.40;99.90
30572;DHT22;17348;50.948;10.696;2023-05-10T06:06:32;14.50;99.90
30572;DHT22;17348;50.948;10.696;2023-05-10T06:09:36;14.50;99.90
30572;DHT22;17348;50.948;10.696;2023-05-10T06:12:38;14.50;99.90
30572;DHT22;17348;50.948;10.696;2023-05-10T06:15:40;14.60;99.90
30572;DHT22;17348;50.948;10.696;2023-05-10T06:18:43;14.60;99.90
30572;DHT22;17348;50.948;10.696;2023-05-10T06:21:45;14.60;99.90
30572;DHT22;17348;50.948;10.696;2023-05-10T06:24:48;14.60;99.90
30572;DHT22;17348;50.948;10.696;2023-05-10T06:27:51;14.60;99.90
30572;DHT22;17348;50.948;10.696;2023-05-10T06:30:58;14.60;99.90
30572;DHT22;17348;50.948;10.696;2023-05-10T06:34:00;14.70;99.90
30572;DHT22;17348;50.948;10.696;2023-05-10T06:37:02;14.70;99.90
30572;DHT22;17348;50.948;10.696;2023-05-10T06:40:07;14.80;99.90
30572;DHT22;17348;50.948;10.696;2023-05-10T06:43:10;14.80;99.90
30572;DHT22;17348;50.948;10.696;2023-05-10T06:46:12;14.90;99.90
30572;DHT22;17348;50.948;10.696;2023-05-10T06:49:15;14.90;99.90
30572;DHT22;17348;50.948;10.696;2023-05-10T06:52:17;15.00;99.90
30572;DHT22;17348;50.948;10.696;2023-05-10T06:55:21;15.10;99.90
30572;DHT22;17348;50.948;10.696;2023-05-10T06:58:23;15.30;99.90
30572;DHT22;17348;50.948;10.696;2023-05-10T07:01:25;15.40;99.90
30572;DHT22;17348;50.948;10.696;2023-05-10T07:04:28;15.50;99.90
30572;DHT22;17348;50.948;10.696;2023-05-10T07:07:30;15.70;99.90
30572;DHT22;17348;50.948;10.696;2023-05-10T07:10:34;15.70;99.90
30572;DHT22;17348;50.948;10.696;2023-05-10T07:13:37;16.00;99.90
30572;DHT22;17348;50.948;10.696;2023-05-10T07:16:42;16.10;99.90
30572;DHT22;17348;50.948;10.696;2023-05-10T07:19:45;16.20;99.90
30572;DHT22;17348;50.948;10.696;2023-05-10T07:22:47;16.10;99.90
30572;DHT22;17348;50.948;10.696;2023-05-10T07:25:52;16.00;99.90
30572;DHT22;17348;50.948;10.696;2023-05-10T07:28:54;15.90;99.90
30572;DHT22;17348;50.948;10.696;2023-05-10T07:31:56;16.00;99.90
30572;DHT22;17348;50.948;10.696;2023-05-10T07:34:59;16.10;99.90
30572;DHT22;17348;50.948;10.696;2023-05-10T07:38:01;16.00;99.90
30572;DHT22;17348;50.948;10.696;2023-05-10T07:41:05;16.10;99.90
30572;DHT22;17348;50.948;10.696;2023-05-10T07:44:07;16.20;99.90
30572;DHT22;17348;50.948;10.696;2023-05-10T07:47:10;16.20;99.90
30572;DHT22;17348;50.948;10.696;2023-05-10T07:50:12;16.30;99.90
30572;DHT22;17348;50.948;10.696;2023-05-10T07:53:15;16.40;99.90
30572;DHT22;17348;50.948;10.696;2023-05-10T07:56:23;16.40;99.90
30572;DHT22;17348;50.948;10.696;2023-05-10T07:59:28;16.60;99.90
30572;DHT22;17348;50.948;10.696;2023-05-10T08:02:30;16.60;99.90
30572;DHT22;17348;50.948;10.696;2023-05-10T08:05:32;16.70;99.90
30572;DHT22;17348;50.948;10.696;2023-05-10T08:08:35;16.70;99.90
30572;DHT22;17348;50.948;10.696;2023-05-10T08:11:38;16.80;99.90
30572;DHT22;17348;50.948;10.696;2023-05-10T08:14:41;16.90;99.90
30572;DHT22;17348;50.948;10.696;2023-05-10T08:17:43;16.90;99.90
30572;DHT22;17348;50.948;10.696;2023-05-10T08:20:46;16.90;99.90
30572;DHT22;17348;50.948;10.696;2023-05-10T08:23:48;16.90;99.90
30572;DHT22;17348;50.948;10.696;2023-05-10T08:26:52;17.10;99.90
30572;DHT22;17348;50.948;10.696;2023-05-10T08:29:54;17.20;99.90
30572;DHT22;17348;50.948;10.696;2023-05-10T08:32:56;17.20;99.90
30572;DHT22;17348;50.948;10.696;2023-05-10T08:35:59;17.10;99.90
30572;DHT22;17348;50.948;10.696;2023-05-10T08:39:01;17.00;99.90
30572;DHT22;17348;50.948;10.696;2023-05-10T08:42:05;16.90;99.90
30572;DHT22;17348;50.948;10.696;2023-05-10T08:45:10;17.00;99.90
30572;DHT22;17348;50.948;10.696;2023-05-10T08:48:14;16.90;99.90
30572;DHT22;17348;50.948;10.696;2023-05-10T08:51:19;17.00;99.90
30572;DHT22;17348;50.948;10.696;2023-05-10T08:54:22;16.80;99.90
30572;DHT22;17348;50.948;10.696;2023-05-10T08:57:26;16.60;99.90
30572;DHT22;17348;50.948;10.696;2023-05-10T09:00:29;16.60;99.90
30572;DHT22;17348;50.948;10.696;2023-05-10T09:03:31;16.40;99.90
30572;DHT22;17348;50.948;10.696;2023-05-10T09:06:34;16.20;99.90
30572;DHT22;17348;50.948;10.696;2023-05-10T09:09:37;16.10;99.90
30572;DHT22;17348;50.948;10.696;2023-05-10T09:12:40;16.20;99.90
30572;DHT22;17348;50.948;10.696;2023-05-10T09:15:45;16.20;99.90
30572;DHT22;17348;50.948;10.696;2023-05-10T09:18:47;16.50;99.90
30572;DHT22;17348;50.948;10.696;2023-05-10T09:21:50;16.80;99.90
30572;DHT22;17348;50.948;10.696;2023-05-10T09:25:04;17.00;99.90
30572;DHT22;17348;50.948;10.696;2023-05-10T09:28:09;17.20;99.90
30572;DHT22;17348;50.948;10.696;2023-05-10T09:31:11;17.20;99.90
30572;DHT22;17348;50.948;10.696;2023-05-10T09:34:18;17.40;99.90
30572;DHT22;17348;50.948;10.696;2023-05-10T09:37:29;17.60;99.90
30572;DHT22;17348;50.948;10.696;2023-05-10T09:40:32;17.60;99.90
30572;DHT22;17348;50.948;10.696;2023-05-10T09:43:40;17.80;99.90
30572;DHT22;17348;50.948;10.696;2023-05-10T09:46:42;17.80;99.90
30572;DHT22;17348;50.948;10.696;2023-05-10T09:49:49;17.70;99.90
30572;DHT22;17348;50.948;10.696;2023-05-10T09:52:53;17.60;99.90
30572;DHT22;17348;50.948;10.696;2023-05-10T09:55:56;17.60;99.90
30572;DHT22;17348;50.948;10.696;2023-05-10T09:59:03;17.50;99.90
30572;DHT22;17348;50.948;10.696;2023-05-10T10:02:06;17.20;99.90
30572;DHT22;17348;50.948;10.696;2023-05-10T10:05:09;16.90;99.90
30572;DHT22;17348;50.948;10.696;2023-05-10T10:08:12;16.60;99.90
30572;DHT22;17348;50.948;10.696;2023-05-10T10:11:14;16.40;99.90
30572;DHT22;17348;50.948;10.696;2023-05-10T10:14:18;16.30;99.90
30572;DHT22;17348;50.948;10.696;2023-05-10T10:17:21;16.20;99.90
30572;DHT22;17348;50.948;10.696;2023-05-10T10:20:23;16.00;99.90
30572;DHT22;17348;50.948;10.696;2023-05-10T10:23:27;16.00;99.90
30572;DHT22;17348;50.948;10.696;2023-05-10T10:26:29;16.10;99.90
30572;DHT22;17348;50.948;10.696;2023-05-10T10:29:37;16.10;99.90
30572;DHT22;17348;50.948;10.696;2023-05-10T10:32:55;16.10;99.90
30572;DHT22;17348;50.948;10.696;2023-05-10T10:36:03;16.20;99.90
30572;DHT22;17348;50.948;10.696;2023-05-10T10:39:10;16.40;99.90
30572;DHT22;17348;50.948;10.696;2023-05-10T10:42:12;16.50;99.90
30572;DHT22;17348;50.948;10.696;2023-05-10T10:45:16;16.70;99.90
30572;DHT22;17348;50.948;10.696;2023-05-10T10:48:22;16.90;99.90
30572;DHT22;17348;50.948;10.696;2023-05-10T10:51:28;16.90;99.90
30572;DHT22;17348;50.948;10.696;2023-05-10T10:54:32;17.00;99.90
30572;DHT22;17348;50.948;10.696;2023-05-10T10:57:44;17.00;99.90
30572;DHT22;17348;50.948;10.696;2023-05-10T11:00:48;17.10;99.90
30572;DHT22;17348;50.948;10.696;2023-05-10T11:07:31;17.20;99.90
30572;DHT22;17348;50.948;10.696;2023-05-10T11:10:34;17.40;99.90
30572;DHT22;17348;50.948;10.696;2023-05-10T11:13:41;17.60;99.90
30572;DHT22;17348;50.948;10.696;2023-05-10T11:16:45;17.80;99.90
30572;DHT22;17348;50.948;10.696;2023-05-10T11:20:06;18.00;99.90
30572;DHT22;17348;50.948;10.696;2023-05-10T11:23:12;18.30;99.90
30572;DHT22;17348;50.948;10.696;2023-05-10T11:26:17;18.30;99.90
30572;DHT22;17348;50.948;10.696;2023-05-10T11:29:19;18.20;99.90
30572;DHT22;17348;50.948;10.696;2023-05-10T11:32:23;18.00;99.90
30572;DHT22;17348;50.948;10.696;2023-05-10T11:35:27;17.90;99.90
30572;DHT22;17348;50.948;10.696;2023-05-10T11:38:33;17.80;99.90
30572;DHT22;17348;50.948;10.696;2023-05-10T11:41:35;17.50;99.90
30572;DHT22;17348;50.948;10.696;2023-05-10T11:44:37;17.20;99.90
30572;DHT22;17348;50.948;10.696;2023-05-10T11:47:41;17.00;99.90
30572;DHT22;17348;50.948;10.696;2023-05-10T11:50:44;16.70;99.90
30572;DHT22;17348;50.948;10.696;2023-05-10T11:53:49;16.50;99.90
30572;DHT22;17348;50.948;10.696;2023-05-10T11:56:52;16.20;99.90
30572;DHT22;17348;50.948;10.696;2023-05-10T11:59:54;16.10;99.90
30572;DHT22;17348;50.948;10.696;2023-05-10T12:02:59;16.00;99.90
30572;DHT22;17348;50.948;10.696;2023-05-10T12:06:02;15.90;99.90
30572;DHT22;17348;50.948;10.696;2023-05-10T12:09:06;15.80;99.90
30572;DHT22;17348;50.948;10.696;2023-05-10T12:12:08;15.90;99.90
30572;DHT22;17348;50.948;10.696;2023-05-10T12:15:12;15.80;99.90
30572;DHT22;17348;50.948;10.696;2023-05-10T12:18:22;15.90;99.90
30572;DHT22;17348;50.948;10.696;2023-05-10T12:21:27;15.90;99.90
30572;DHT22;17348;50.948;10.696;2023-05-10T12:24:29;16.00;99.90
30572;DHT22;17348;50.948;10.696;2023-05-10T12:27:32;16.10;99.90
30572;DHT22;17348;50.948;10.696;2023-05-10T12:30:35;16.10;99.90
30572;DHT22;17348;50.948;10.696;2023-05-10T12:33:41;16.20;99.90
30572;DHT22;17348;50.948;10.696;2023-05-10T12:36:43;16.30;99.90
30572;DHT22;17348;50.948;10.696;2023-05-10T12:39:46;16.40;99.90
30572;DHT22;17348;50.948;10.696;2023-05-10T12:42:48;16.40;99.90
30572;DHT22;17348;50.948;10.696;2023-05-10T12:45:50;16.60;99.90
30572;DHT22;17348;50.948;10.696;2023-05-10T12:48:54;16.80;99.90
30572;DHT22;17348;50.948;10.696;2023-05-10T12:51:56;17.00;99.90
30572;DHT22;17348;50.948;10.696;2023-05-10T12:54:59;17.20;99.90
30572;DHT22;17348;50.948;10.696;2023-05-10T12:58:01;17.40;99.90
30572;DHT22;17348;50.948;10.696;2023-05-10T13:01:05;17.60;99.90
30572;DHT22;17348;50.948;10.696;2023-05-10T13:04:08;17.80;99.90
30572;DHT22;17348;50.948;10.696;2023-05-10T13:07:11;18.00;99.90
30572;DHT22;17348;50.948;10.696;2023-05-10T13:10:13;18.30;99.90
30572;DHT22;17348;50.948;10.696;2023-05-10T13:13:16;18.50;99.90
30572;DHT22;17348;50.948;10.696;2023-05-10T13:16:19;18.60;99.90
30572;DHT22;17348;50.948;10.696;2023-05-10T13:19:22;18.80;99.90
30572;DHT22;17348;50.948;10.696;2023-05-10T13:22:27;19.00;99.90
30572;DHT22;17348;50.948;10.696;2023-05-10T13:25:33;18.90;99.90
30572;DHT22;17348;50.948;10.696;2023-05-10T13:28:39;18.90;99.90
30572;DHT22;17348;50.948;10.696;2023-05-10T13:31:41;19.00;99.90
30572;DHT22;17348;50.948;10.696;2023-05-10T13:34:45;19.00;99.90
30572;DHT22;17348;50.948;10.696;2023-05-10T13:37:47;19.20;99.90
30572;DHT22;17348;50.948;10.696;2023-05-10T13:40:50;19.20;99.90
30572;DHT22;17348;50.948;10.696;2023-05-10T13:43:53;19.20;99.90
30572;DHT22;17348;50.948;10.696;2023-05-10T13:46:56;19.20;99.90
30572;DHT22;17348;50.948;10.696;2023-05-10T13:50:00;19.10;99.90
30572;DHT22;17348;50.948;10.696;2023-05-10T13:53:03;19.10;99.90
30572;DHT22;17348;50.948;10.696;2023-05-10T13:56:06;19.00;99.90
30572;DHT22;17348;50.948;10.696;2023-05-10T13:59:08;19.10;99.90
30572;DHT22;17348;50.948;10.696;2023-05-10T14:02:11;19.20;99.90
30572;DHT22;17348;50.948;10.696;2023-05-10T14:05:15;19.40;99.90
30572;DHT22;17348;50.948;10.696;2023-05-10T14:08:17;19.50;99.90
30572;DHT22;17348;50.948;10.696;2023-05-10T14:11:20;19.70;99.90
30572;DHT22;17348;50.948;10.696;2023-05-10T14:14:22;19.90;99.90
30572;DHT22;17348;50.948;10.696;2023-05-10T14:17:24;20.00;99.90
30572;DHT22;17348;50.948;10.696;2023-05-10T14:20:28;20.10;99.90
30572;DHT22;17348;50.948;10.696;2023-05-10T14:23:31;20.20;99.90
30572;DHT22;17348;50.948;10.696;2023-05-10T14:26:33;20.40;99.90
30572;DHT22;17348;50.948;10.696;2023-05-10T14:29:36;20.40;99.90
30572;DHT22;17348;50.948;10.696;2023-05-10T14:32:38;20.40;99.90
30572;DHT22;17348;50.948;10.696;2023-05-10T14:35:42;20.40;99.90
30572;DHT22;17348;50.948;10.696;2023-05-10T14:38:44;20.20;99.90
30572;DHT22;17348;50.948;10.696;2023-05-10T14:41:47;20.00;99.90
30572;DHT22;17348;50.948;10.696;2023-05-10T14:44:49;19.80;99.90
30572;DHT22;17348;50.948;10.696;2023-05-10T14:47:51;19.90;99.90
30572;DHT22;17348;50.948;10.696;2023-05-10T14:50:55;19.70;99.90
30572;DHT22;17348;50.948;10.696;2023-05-10T14:53:58;19.60;99.90
30572;DHT22;17348;50.948;10.696;2023-05-10T14:57:00;19.60;99.90
30572;DHT22;17348;50.948;10.696;2023-05-10T15:00:03;19.50;99.90
30572;DHT22;17348;50.948;10.696;2023-05-10T15:03:05;19.50;99.90
30572;DHT22;17348;50.948;10.696;2023-05-10T15:06:09;19.50;99.90
30572;DHT22;17348;50.948;10.696;2023-05-10T15:09:12;19.50;99.90
30572;DHT22;17348;50.948;10.696;2023-05-10T15:12:14;19.40;99.90
30572;DHT22;17348;50.948;10.696;2023-05-10T15:15:16;19.30;99.90
30572;DHT22;17348;50.948;10.696;2023-05-10T15:18:19;19.20;99.90
30572;DHT22;17348;50.948;10.696;2023-05-10T15:21:22;19.10;99.90
30572;DHT22;17348;50.948;10.696;2023-05-10T15:24:25;18.90;99.90
30572;DHT22;17348;50.948;10.696;2023-05-10T15:27:27;18.80;99.90
30572;DHT22;17348;50.948;10.696;2023-05-10T15:30:29;18.70;99.90
30572;DHT22;17348;50.948;10.696;2023-05-10T15:33:32;18.60;99.90
30572;DHT22;17348;50.948;10.696;2023-05-10T15:36:35;18.40;99.90
30572;DHT22;17348;50.948;10.696;2023-05-10T15:39:38;18.30;99.90
30572;DHT22;17348;50.948;10.696;2023-05-10T15:42:40;18.10;99.90
30572;DHT22;17348;50.948;10.696;2023-05-10T15:45:42;17.80;99.90
30572;DHT22;17348;50.948;10.696;2023-05-10T15:48:45;17.40;99.90
30572;DHT22;17348;50.948;10.696;2023-05-10T15:51:49;16.90;99.90
30572;DHT22;17348;50.948;10.696;2023-05-10T15:54:51;16.60;99.90
30572;DHT22;17348;50.948;10.696;2023-05-10T15:57:53;16.20;99.90
30572;DHT22;17348;50.948;10.696;2023-05-10T16:00:56;15.90;99.90
30572;DHT22;17348;50.948;10.696;2023-05-10T16:03:59;15.70;99.90
30572;DHT22;17348;50.948;10.696;2023-05-10T16:07:02;15.40;99.90
30572;DHT22;17348;50.948;10.696;2023-05-10T16:10:07;15.20;99.90
30572;DHT22;17348;50.948;10.696;2023-05-10T16:13:09;15.10;99.90
30572;DHT22;17348;50.948;10.696;2023-05-10T16:16:12;14.80;99.90
30572;DHT22;17348;50.948;10.696;2023-05-10T16:19:14;14.60;99.90
30572;DHT22;17348;50.948;10.696;2023-05-10T16:22:18;14.30;99.90
30572;DHT22;17348;50.948;10.696;2023-05-10T16:25:22;14.20;99.90
30572;DHT22;17348;50.948;10.696;2023-05-10T16:28:24;14.10;99.90
30572;DHT22;17348;50.948;10.696;2023-05-10T16:31:26;14.00;99.90
30572;DHT22;17348;50.948;10.696;2023-05-10T16:34:29;14.00;99.90
30572;DHT22;17348;50.948;10.696;2023-05-10T16:37:33;14.00;99.90
30572;DHT22;17348;50.948;10.696;2023-05-10T16:40:35;13.90;99.90
30572;DHT22;17348;50.948;10.696;2023-05-10T16:43:38;13.80;99.90
30572;DHT22;17348;50.948;10.696;2023-05-10T16:46:40;13.80;99.90
30572;DHT22;17348;50.948;10.696;2023-05-10T16:49:43;13.80;99.90
30572;DHT22;17348;50.948;10.696;2023-05-10T16:52:47;13.70;99.90
30572;DHT22;17348;50.948;10.696;2023-05-10T16:55:49;13.70;99.90
30572;DHT22;17348;50.948;10.696;2023-05-10T16:58:52;13.70;99.90
30572;DHT22;17348;50.948;10.696;2023-05-10T17:01:56;13.70;99.90
30572;DHT22;17348;50.948;10.696;2023-05-10T17:04:58;13.80;99.90
30572;DHT22;17348;50.948;10.696;2023-05-10T17:08:02;13.70;99.90
30572;DHT22;17348;50.948;10.696;2023-05-10T17:11:04;13.80;99.90
30572;DHT22;17348;50.948;10.696;2023-05-10T17:14:07;13.70;99.90
30572;DHT22;17348;50.948;10.696;2023-05-10T17:17:10;13.70;99.90
30572;DHT22;17348;50.948;10.696;2023-05-10T17:20:12;13.70;99.90
30572;DHT22;17348;50.948;10.696;2023-05-10T17:23:16;13.70;99.90
30572;DHT22;17348;50.948;10.696;2023-05-10T17:26:18;13.70;99.90
30572;DHT22;17348;50.948;10.696;2023-05-10T17:29:22;13.80;99.90
30572;DHT22;17348;50.948;10.696;2023-05-10T17:32:25;13.80;99.90
30572;DHT22;17348;50.948;10.696;2023-05-10T17:35:28;13.90;99.90
30572;DHT22;17348;50.948;10.696;2023-05-10T17:38:34;13.90;99.90
30572;DHT22;17348;50.948;10.696;2023-05-10T17:41:37;13.90;99.90
30572;DHT22;17348;50.948;10.696;2023-05-10T17:44:40;13.80;99.90
30572;DHT22;17348;50.948;10.696;2023-05-10T17:47:46;13.90;99.90
30572;DHT22;17348;50.948;10.696;2023-05-10T17:50:51;13.90;99.90
30572;DHT22;17348;50.948;10.696;2023-05-10T17:53:55;13.90;99.90
30572;DHT22;17348;50.948;10.696;2023-05-10T17:56:57;13.90;99.90
30572;DHT22;17348;50.948;10.696;2023-05-10T18:00:01;14.00;99.90
30572;DHT22;17348;50.948;10.696;2023-05-10T18:03:06;13.90;99.90
30572;DHT22;17348;50.948;10.696;2023-05-10T18:06:08;14.00;99.90
30572;DHT22;17348;50.948;10.696;2023-05-10T18:09:12;14.00;99.90
30572;DHT22;17348;50.948;10.696;2023-05-10T18:12:16;13.90;99.90
30572;DHT22;17348;50.948;10.696;2023-05-10T18:15:18;13.90;99.90
30572;DHT22;17348;50.948;10.696;2023-05-10T18:18:20;13.90;99.90
30572;DHT22;17348;50.948;10.696;2023-05-10T18:21:23;14.00;99.90
30572;DHT22;17348;50.948;10.696;2023-05-10T18:24:26;14.00;99.90
30572;DHT22;17348;50.948;10.696;2023-05-10T18:27:29;13.90;99.90
30572;DHT22;17348;50.948;10.696;2023-05-10T18:30:31;13.90;99.90
30572;DHT22;17348;50.948;10.696;2023-05-10T18:33:33;13.80;99.90
30572;DHT22;17348;50.948;10.696;2023-05-10T18:36:36;13.80;99.90
30572;DHT22;17348;50.948;10.696;2023-05-10T18:39:39;13.80;99.90
30572;DHT22;17348;50.948;10.696;2023-05-10T18:42:42;13.80;99.90
30572;DHT22;17348;50.948;10.696;2023-05-10T18:45:46;13.80;99.90
30572;DHT22;17348;50.948;10.696;2023-05-10T18:48:48;13.80;99.90
30572;DHT22;17348;50.948;10.696;2023-05-10T18:51:51;13.80;99.90
30572;DHT22;17348;50.948;10.696;2023-05-10T18:54:55;13.80;99.90
30572;DHT22;17348;50.948;10.696;2023-05-10T18:57:57;13.80;99.90
30572;DHT22;17348;50.948;10.696;2023-05-10T19:01:00;13.80;99.90
30572;DHT22;17348;50.948;10.696;2023-05-10T19:04:02;13.70;99.90
30572;DHT22;17348;50.948;10.696;2023-05-10T19:07:05;13.70;99.90